createdAt,value
2017-02-16T00:00:59.437Z,53.8
2017-02-16T00:02:58.033Z,53.79
2017-02-16T00:05:10.549Z,53.83
2017-02-16T00:07:10.194Z,53.82
2017-02-16T00:09:12.378Z,53.81
2017-02-16T00:11:28.282Z,53.85
2017-02-16T00:13:27.351Z,53.85
2017-02-16T00:15:35.035Z,53.88
2017-02-16T00:17:32.105Z,53.91
2017-02-16T00:19:30.729Z,53.87
2017-02-16T00:21:45.600Z,53.88
2017-02-16T00:24:08.059Z,53.87
2017-02-16T00:26:06.986Z,53.87
2017-02-16T00:28:15.039Z,53.85
2017-02-16T00:30:29.420Z,53.85
2017-02-16T00:32:33.932Z,53.84
2017-02-16T00:34:22.656Z,53.83
2017-02-16T00:36:23.668Z,53.84
2017-02-16T00:38:24.728Z,53.82
2017-02-16T00:40:28.058Z,53.82
2017-02-16T00:42:28.230Z,53.85
2017-02-16T00:44:35.800Z,53.83
2017-02-16T00:46:33.147Z,53.78
2017-02-16T00:48:31.001Z,53.76
2017-02-16T00:50:37.563Z,53.72
2017-02-16T00:52:36.649Z,53.73
2017-02-16T00:54:48.978Z,53.76
2017-02-16T00:56:47.321Z,53.78
2017-02-16T00:58:56.355Z,53.78
2017-02-16T01:00:59.962Z,53.82
2017-02-16T01:03:13.677Z,53.81
2017-02-16T01:05:21.054Z,53.75
2017-02-16T01:07:14.135Z,53.76
2017-02-16T01:09:18.878Z,53.7
2017-02-16T01:11:22.025Z,53.66
2017-02-16T01:13:28.191Z,53.64
2017-02-16T01:15:30.529Z,53.64
2017-02-16T01:17:43.438Z,53.67
2017-02-16T01:19:38.411Z,53.63
2017-02-16T01:21:54.047Z,53.63
2017-02-16T01:23:57.044Z,53.58
2017-02-16T01:26:06.900Z,53.55
2017-02-16T01:28:07.411Z,53.59
2017-02-16T01:30:18.613Z,53.66
2017-02-16T01:32:18.096Z,53.66
2017-02-16T01:34:22.184Z,53.64
2017-02-16T01:36:21.592Z,53.66
2017-02-16T01:38:23.412Z,53.6
2017-02-16T01:40:28.029Z,53.57
2017-02-16T01:42:36.719Z,53.55
2017-02-16T01:44:29.207Z,53.55
2017-02-16T01:46:32.441Z,53.55
2017-02-16T01:48:37.155Z,53.61
2017-02-16T01:50:46.161Z,53.58
2017-02-16T01:52:56.704Z,53.54
2017-02-16T01:54:59.468Z,53.56
2017-02-16T01:57:04.928Z,53.53
2017-02-16T01:59:14.855Z,53.55
2017-02-16T02:01:18.409Z,53.53
2017-02-16T02:03:26.380Z,53.52
2017-02-16T02:05:33.069Z,53.46
2017-02-16T02:07:40.112Z,53.46
2017-02-16T02:09:27.502Z,53.41
2017-02-16T02:11:39.644Z,53.41
2017-02-16T02:13:41.941Z,53.42
2017-02-16T02:15:34.254Z,53.38
2017-02-16T02:17:31.486Z,53.41
2017-02-16T02:19:28.745Z,53.44
2017-02-16T02:21:26.280Z,53.47
2017-02-16T02:23:28.567Z,53.53
2017-02-16T02:25:31.332Z,53.54
2017-02-16T02:27:38.948Z,53.55
2017-02-16T02:29:36.233Z,53.53
2017-02-16T02:31:33.562Z,53.57
2017-02-16T02:33:20.947Z,53.6
2017-02-16T02:35:13.997Z,53.6
2017-02-16T02:37:11.646Z,53.61
2017-02-16T02:39:14.039Z,53.6
2017-02-16T02:41:16.289Z,53.62
2017-02-16T02:43:08.624Z,53.62
2017-02-16T02:45:01.284Z,53.59
2017-02-16T02:47:03.601Z,53.57
2017-02-16T02:49:01.145Z,53.56
2017-02-16T02:50:53.556Z,53.57
2017-02-16T02:52:55.798Z,53.59
2017-02-16T02:54:58.160Z,53.62
2017-02-16T02:57:00.538Z,53.63
2017-02-16T02:58:57.816Z,53.62
2017-02-16T03:01:00.332Z,53.63
2017-02-16T03:02:57.902Z,53.61
2017-02-16T03:05:00.316Z,53.6
2017-02-16T03:06:57.673Z,53.62
2017-02-16T03:08:50.167Z,53.62
2017-02-16T03:10:47.746Z,53.66
2017-02-16T03:12:30.223Z,53.67
2017-02-16T03:14:32.453Z,53.71
2017-02-16T03:16:29.697Z,53.74
2017-02-16T03:18:37.055Z,53.75
2017-02-16T03:20:39.325Z,53.76
2017-02-16T03:22:51.633Z,53.78
2017-02-16T03:24:50.917Z,53.75
2017-02-16T03:26:38.240Z,53.77
2017-02-16T03:28:35.680Z,53.79
2017-02-16T03:30:28.076Z,53.8
2017-02-16T03:32:15.566Z,53.8
2017-02-16T03:34:17.820Z,53.81
2017-02-16T03:36:25.290Z,53.8
2017-02-16T03:38:27.465Z,53.8
2017-02-16T03:40:24.820Z,53.81
2017-02-16T03:42:32.221Z,53.82
2017-02-16T03:44:34.575Z,53.78
2017-02-16T03:46:21.938Z,53.79
2017-02-16T03:48:14.237Z,53.78
2017-02-16T03:50:11.725Z,53.74
2017-02-16T03:51:59.126Z,53.73
2017-02-16T03:54:06.492Z,53.73
2017-02-16T03:56:13.794Z,53.78
2017-02-16T03:58:15.992Z,53.83
2017-02-16T04:00:23.452Z,53.86
2017-02-16T04:02:20.835Z,53.87
2017-02-16T04:04:33.228Z,53.9
2017-02-16T04:06:35.488Z,53.95
2017-02-16T04:08:32.743Z,53.99
2017-02-16T04:10:40.263Z,54.02
2017-02-16T04:12:33.207Z,54.04
2017-02-16T04:14:35.836Z,54.11
2017-02-16T04:16:38.139Z,54.13
2017-02-16T04:18:35.400Z,54.11
2017-02-16T04:20:37.766Z,54.05
2017-02-16T04:22:45.098Z,54.02
2017-02-16T04:24:42.377Z,54
2017-02-16T04:26:39.753Z,53.98
2017-02-16T04:28:42.040Z,53.98
2017-02-16T04:30:39.270Z,53.96
2017-02-16T04:32:46.494Z,53.93
2017-02-16T04:34:39.192Z,53.94
2017-02-16T04:36:36.442Z,53.96
2017-02-16T04:38:29.446Z,53.95
2017-02-16T04:40:26.815Z,53.9
2017-02-16T04:42:19.111Z,53.92
2017-02-16T04:44:11.394Z,53.97
2017-02-16T04:46:18.986Z,54
2017-02-16T04:48:16.520Z,54.02
2017-02-16T04:50:08.774Z,54
2017-02-16T04:52:06.124Z,53.98
2017-02-16T04:54:08.312Z,53.98
2017-02-16T04:56:10.731Z,54.02
2017-02-16T04:58:08.042Z,54.11
2017-02-16T05:00:05.244Z,54.13
2017-02-16T05:02:12.540Z,54.13
2017-02-16T05:04:09.850Z,54.12
2017-02-16T05:06:02.299Z,54.14
2017-02-16T05:07:59.620Z,54.13
2017-02-16T05:09:46.999Z,54.13
2017-02-16T05:11:49.523Z,54.17
2017-02-16T05:13:51.911Z,54.16
2017-02-16T05:15:54.368Z,54.2
2017-02-16T05:17:46.609Z,54.19
2017-02-16T05:19:38.911Z,54.18
2017-02-16T05:21:41.312Z,54.19
2017-02-16T05:23:38.747Z,54.18
2017-02-16T05:25:46.031Z,54.16
2017-02-16T05:27:43.278Z,54.19
2017-02-16T05:29:40.576Z,54.24
2017-02-16T05:31:43.009Z,54.26
2017-02-16T05:33:40.465Z,54.32
2017-02-16T05:35:38.024Z,54.25
2017-02-16T05:37:35.338Z,54.15
2017-02-16T05:39:27.731Z,54.1
2017-02-16T05:41:20.154Z,54.12
2017-02-16T05:43:17.401Z,54.1
2017-02-16T05:45:14.676Z,54.12
2017-02-16T05:47:07.084Z,54.08
2017-02-16T05:49:04.392Z,54.1
2017-02-16T05:51:01.637Z,54.11
2017-02-16T05:52:53.897Z,54.12
2017-02-16T05:55:01.535Z,54.09
2017-02-16T05:57:04.356Z,54.08
2017-02-16T05:59:06.678Z,54.08
2017-02-16T06:01:19.163Z,54.12
2017-02-16T06:03:11.831Z,54.13
2017-02-16T06:05:14.206Z,54.18
2017-02-16T06:07:11.601Z,54.18
2017-02-16T06:09:04.219Z,54.14
2017-02-16T06:11:06.441Z,54.13
2017-02-16T06:12:53.810Z,54.14
2017-02-16T06:14:41.314Z,54.11
2017-02-16T06:16:43.481Z,54.11
2017-02-16T06:18:50.932Z,54.06
2017-02-16T06:20:53.926Z,54.04
2017-02-16T06:23:01.609Z,54.04
2017-02-16T06:24:59.257Z,54.02
2017-02-16T06:26:57.125Z,53.95
2017-02-16T06:28:59.959Z,53.9
2017-02-16T06:30:52.719Z,53.86
2017-02-16T06:32:55.005Z,53.82
2017-02-16T06:35:10.171Z,53.76
2017-02-16T06:37:22.444Z,53.71
2017-02-16T06:39:27.736Z,53.62
2017-02-16T06:41:30.046Z,53.54
2017-02-16T06:43:32.299Z,53.48
2017-02-16T06:45:29.734Z,53.46
2017-02-16T06:47:32.088Z,53.4
2017-02-16T06:49:44.516Z,53.35
2017-02-16T06:51:46.926Z,53.34
2017-02-16T06:53:54.120Z,53.31
2017-02-16T06:55:46.550Z,53.27
2017-02-16T06:57:38.979Z,53.21
2017-02-16T06:59:41.263Z,53.16
2017-02-16T07:01:43.506Z,53.09
2017-02-16T07:03:55.678Z,53.05
2017-02-16T07:05:57.943Z,52.99
2017-02-16T07:07:55.624Z,52.93
2017-02-16T07:09:58.144Z,52.86
2017-02-16T07:11:50.755Z,52.84
2017-02-16T07:13:53.062Z,52.81
2017-02-16T07:15:55.460Z,52.76
2017-02-16T07:17:57.743Z,52.71
2017-02-16T07:19:55.113Z,52.67
2017-02-16T07:22:02.653Z,52.63
2017-02-16T07:24:04.925Z,52.56
2017-02-16T07:25:52.422Z,52.52
2017-02-16T07:27:39.812Z,52.47
2017-02-16T07:29:42.134Z,52.43
2017-02-16T07:31:34.451Z,52.42
2017-02-16T07:33:31.990Z,52.39
2017-02-16T07:35:19.296Z,52.36
2017-02-16T07:37:31.707Z,52.31
2017-02-16T07:39:34.106Z,52.26
2017-02-16T07:41:26.394Z,52.23
2017-02-16T07:43:13.906Z,52.19
2017-02-16T07:45:21.863Z,52.19
2017-02-16T07:47:29.391Z,52.21
2017-02-16T07:49:26.742Z,52.17
2017-02-16T07:51:29.065Z,52.13
2017-02-16T07:53:16.633Z,52.1
2017-02-16T07:55:19.149Z,52.09
2017-02-16T07:57:06.529Z,52.07
2017-02-16T07:59:13.992Z,52.04
2017-02-16T08:01:07.026Z,51.99
2017-02-16T08:03:10.607Z,51.97
2017-02-16T08:05:09.569Z,51.93
2017-02-16T08:07:06.833Z,51.9
2017-02-16T08:09:12.208Z,51.87
2017-02-16T08:11:15.446Z,51.87
2017-02-16T08:13:27.743Z,51.84
2017-02-16T08:15:25.779Z,51.8
2017-02-16T08:17:23.037Z,51.79
2017-02-16T08:19:15.528Z,51.76
2017-02-16T08:21:18.245Z,51.75
2017-02-16T08:23:10.639Z,51.74
2017-02-16T08:25:12.963Z,51.7
2017-02-16T08:27:20.295Z,51.67
2017-02-16T08:29:27.589Z,51.67
2017-02-16T08:31:25.172Z,51.66
2017-02-16T08:33:27.445Z,51.65
2017-02-16T08:35:34.762Z,51.62
2017-02-16T08:37:42.117Z,51.61
2017-02-16T08:39:34.406Z,51.58
2017-02-16T08:41:31.714Z,51.54
2017-02-16T08:43:19.206Z,51.55
2017-02-16T08:45:16.706Z,51.51
2017-02-16T08:47:18.922Z,51.49
2017-02-16T08:49:11.245Z,51.42
2017-02-16T08:51:13.686Z,51.35
2017-02-16T08:53:11.094Z,51.31
2017-02-16T08:55:08.672Z,51.31
2017-02-16T08:57:05.936Z,51.28
2017-02-16T08:59:03.217Z,51.26
2017-02-16T09:01:00.600Z,51.25
2017-02-16T09:03:08.025Z,51.18
2017-02-16T09:05:10.334Z,51.14
2017-02-16T09:07:07.752Z,51.07
2017-02-16T09:09:10.047Z,51.01
2017-02-16T09:11:02.515Z,51
2017-02-16T09:12:54.971Z,50.96
2017-02-16T09:14:52.445Z,50.92
2017-02-16T09:16:49.780Z,50.86
2017-02-16T09:18:42.197Z,50.78
2017-02-16T09:20:34.505Z,48.44
2017-02-16T09:22:26.946Z,42.25
2017-02-16T09:24:29.140Z,39.46
2017-02-16T09:26:17.649Z,38.3
2017-02-16T09:28:16.481Z,37.54
2017-02-16T09:30:13.873Z,37.12
2017-02-16T09:32:19.130Z,36.81
2017-02-16T09:34:11.488Z,36.45
2017-02-16T09:36:18.877Z,36.11
2017-02-16T09:38:21.061Z,35.89
2017-02-16T09:40:23.550Z,35.31
2017-02-16T09:42:25.813Z,34.96
2017-02-16T09:44:28.197Z,34.59
2017-02-16T09:46:30.640Z,34.63
2017-02-16T09:48:28.018Z,34.43
2017-02-16T09:50:15.489Z,34.25
2017-02-16T09:52:08.020Z,33.99
2017-02-16T09:54:10.480Z,34.06
2017-02-16T09:56:02.896Z,33.98
2017-02-16T09:57:55.434Z,33.7
2017-02-16T09:59:42.720Z,33.35
2017-02-16T10:01:50.042Z,33.21
2017-02-16T10:03:47.351Z,33.1
2017-02-16T10:05:49.789Z,32.81
2017-02-16T10:07:47.507Z,32.8
2017-02-16T10:09:40.005Z,32.74
2017-02-16T10:11:37.408Z,32.47
2017-02-16T10:13:34.768Z,32.24
2017-02-16T10:15:37.054Z,32.22
2017-02-16T10:17:19.458Z,32.23
2017-02-16T10:19:21.971Z,32.19
2017-02-16T10:21:30.306Z,32.13
2017-02-16T10:23:07.858Z,31.88
2017-02-16T10:25:00.477Z,31.71
2017-02-16T10:26:59.574Z,31.67
2017-02-16T10:29:01.895Z,31.56
2017-02-16T10:31:04.194Z,31.67
2017-02-16T10:33:11.532Z,31.54
2017-02-16T10:35:04.087Z,31.53
2017-02-16T10:37:06.393Z,31.6
2017-02-16T10:39:08.728Z,31.42
2017-02-16T10:41:16.190Z,31.32
2017-02-16T10:43:18.846Z,31.33
2017-02-16T10:45:21.095Z,31.14
2017-02-16T10:47:23.370Z,30.93
2017-02-16T10:49:15.819Z,31.01
2017-02-16T10:51:13.192Z,30.99
2017-02-16T10:53:20.560Z,30.87
2017-02-16T10:55:12.864Z,30.73
2017-02-16T10:57:15.212Z,30.82
2017-02-16T10:59:07.796Z,30.79
2017-02-16T11:01:10.095Z,30.71
2017-02-16T11:03:07.461Z,30.68
2017-02-16T11:05:09.811Z,30.63
2017-02-16T11:07:17.338Z,30.74
2017-02-16T11:09:19.806Z,30.67
2017-02-16T11:11:27.161Z,30.58
2017-02-16T11:13:24.624Z,30.57
2017-02-16T11:15:22.107Z,30.66
2017-02-16T11:17:19.705Z,30.57
2017-02-16T11:19:19.707Z,30.58
2017-02-16T11:21:27.005Z,30.64
2017-02-16T11:23:24.436Z,30.5
2017-02-16T11:25:21.821Z,30.47
2017-02-16T11:27:29.094Z,30.55
2017-02-16T11:29:36.338Z,30.22
2017-02-16T11:31:34.344Z,30.1
2017-02-16T11:33:41.861Z,30.32
2017-02-16T11:35:44.369Z,30.54
2017-02-16T11:37:47.474Z,30.7
2017-02-16T11:39:49.856Z,30.71
2017-02-16T11:42:19.564Z,30.73
2017-02-16T11:44:43.440Z,30.66
2017-02-16T11:46:59.518Z,31
2017-02-16T11:48:56.856Z,31.31
2017-02-16T11:50:44.368Z,31.09
2017-02-16T11:52:52.025Z,30.96
2017-02-16T11:54:59.515Z,31
2017-02-16T11:56:56.899Z,31.1
2017-02-16T11:58:59.223Z,31.17
2017-02-16T12:00:59.829Z,31.17
2017-02-16T12:03:02.140Z,32.1
2017-02-16T12:05:04.499Z,31.94
2017-02-16T12:07:06.995Z,31.65
2017-02-16T12:09:09.426Z,31.63
2017-02-16T12:11:10.900Z,31.34
2017-02-16T12:13:08.319Z,31.33
2017-02-16T12:15:10.680Z,31.47
2017-02-16T12:17:13.017Z,31.71
2017-02-16T12:19:10.855Z,32.42
2017-02-16T12:21:19.314Z,33.28
2017-02-16T12:23:27.412Z,33.25
2017-02-16T12:25:20.678Z,32.73
2017-02-16T12:27:24.412Z,31.76
2017-02-16T12:29:26.906Z,30.32
2017-02-16T12:31:32.638Z,30.65
2017-02-16T12:33:30.038Z,30.15
2017-02-16T12:35:27.387Z,30.55
2017-02-16T12:37:38.668Z,32.22
2017-02-16T12:39:46.175Z,31.9
2017-02-16T12:41:43.859Z,32.39
2017-02-16T12:43:41.497Z,34.2
2017-02-16T12:45:43.855Z,35.49
2017-02-16T12:47:46.260Z,34.9
2017-02-16T12:49:38.706Z,35.97
2017-02-16T12:51:51.141Z,36.15
2017-02-16T12:53:53.645Z,35.39
2017-02-16T12:55:56.036Z,34.96
2017-02-16T12:57:58.834Z,35.94
2017-02-16T12:59:51.595Z,35.35
2017-02-16T13:01:54.004Z,35.22
2017-02-16T13:03:59.325Z,37.21
2017-02-16T13:05:52.100Z,38.54
2017-02-16T13:07:56.767Z,39.08
2017-02-16T13:09:59.967Z,38.42
2017-02-16T13:12:09.346Z,38.62
2017-02-16T13:14:11.684Z,39.1
2017-02-16T13:16:13.888Z,39.45
2017-02-16T13:18:11.210Z,40.2
2017-02-16T13:20:19.706Z,40.69
2017-02-16T13:22:24.490Z,39.23
2017-02-16T13:24:22.213Z,39.82
2017-02-16T13:26:26.593Z,39.66
2017-02-16T13:28:21.033Z,40.92
2017-02-16T13:30:19.441Z,41.29
2017-02-16T13:32:22.689Z,42.06
2017-02-16T13:34:20.207Z,41.88
2017-02-16T13:36:17.241Z,41.61
2017-02-16T13:38:31.116Z,40.61
2017-02-16T13:40:34.598Z,40.81
2017-02-16T13:42:43.906Z,40.75
2017-02-16T13:44:53.095Z,40.61
2017-02-16T13:47:02.535Z,40.2
2017-02-16T13:49:05.110Z,40.43
2017-02-16T13:51:13.678Z,40.13
2017-02-16T13:53:19.495Z,40.11
2017-02-16T13:55:16.860Z,40.16
2017-02-16T13:57:14.174Z,40.05
2017-02-16T13:59:06.598Z,39.96
2017-02-16T14:00:54.069Z,40.07
2017-02-16T14:02:41.562Z,40.25
2017-02-16T14:04:53.795Z,40.3
2017-02-16T14:07:01.147Z,40.5
2017-02-16T14:09:08.554Z,40.57
2017-02-16T14:11:20.733Z,40.62
2017-02-16T14:13:23.190Z,40.69
2017-02-16T14:15:25.653Z,40.85
2017-02-16T14:17:17.986Z,41.04
2017-02-16T14:19:15.494Z,41.22
2017-02-16T14:21:12.879Z,41.38
2017-02-16T14:23:10.296Z,41.32
2017-02-16T14:25:02.660Z,41.5
2017-02-16T14:27:05.051Z,41.59
2017-02-16T14:29:07.708Z,41.78
2017-02-16T14:31:15.037Z,41.96
2017-02-16T14:33:17.332Z,42.22
2017-02-16T14:35:14.860Z,42.34
2017-02-16T14:37:12.280Z,42.82
2017-02-16T14:39:14.667Z,43.05
2017-02-16T14:41:22.591Z,43.59
2017-02-16T14:43:25.126Z,43.86
2017-02-16T14:45:22.544Z,43.83
2017-02-16T14:47:25.036Z,43.74
2017-02-16T14:49:32.649Z,44.17
2017-02-16T14:51:40.393Z,44.75
2017-02-16T14:53:32.625Z,45.17
2017-02-16T14:55:29.917Z,45.8
2017-02-16T14:57:17.334Z,46.39
2017-02-16T14:59:09.713Z,46.61
2017-02-16T15:01:21.964Z,46.36
2017-02-16T15:03:29.407Z,46.15
2017-02-16T15:05:31.763Z,46.32
2017-02-16T15:07:33.983Z,46.41
2017-02-16T15:09:41.482Z,47.17
2017-02-16T15:11:29.549Z,47.91
2017-02-16T15:13:50.700Z,48.02
2017-02-16T15:16:29.203Z,48.5
2017-02-16T15:19:20.513Z,48.6
2017-02-16T15:22:16.542Z,48.99
2017-02-16T15:25:12.957Z,49.71
2017-02-16T15:28:11.481Z,49.94
2017-02-16T15:31:08.706Z,50.67
2017-02-16T15:34:08.383Z,51.46
2017-02-16T15:37:02.076Z,52.25
2017-02-16T15:39:57.911Z,52.69
2017-02-16T15:43:00.507Z,53.08
2017-02-16T15:45:52.608Z,53.62
2017-02-16T15:48:05.773Z,54.05
2017-02-16T15:50:04.237Z,54.33
2017-02-16T15:52:01.847Z,54.46
2017-02-16T15:54:00.148Z,54.57
2017-02-16T15:56:07.545Z,54.34
2017-02-16T15:58:09.941Z,54.29
2017-02-16T16:00:17.256Z,54.4
2017-02-16T16:02:09.655Z,54.32
2017-02-16T16:04:11.918Z,54.11
2017-02-16T16:06:19.361Z,53.88
2017-02-16T16:08:21.849Z,53.83
2017-02-16T16:10:27.799Z,53.88
2017-02-16T16:12:30.124Z,53.93
2017-02-16T16:14:32.533Z,54.01
2017-02-16T16:16:39.857Z,54.13
2017-02-16T16:18:42.135Z,54.25
2017-02-16T16:20:34.430Z,54.35
2017-02-16T16:22:26.753Z,54.43
2017-02-16T16:24:29.053Z,54.58
2017-02-16T16:26:42.298Z,54.7
2017-02-16T16:28:34.660Z,54.85
2017-02-16T16:30:31.929Z,54.99
2017-02-16T16:32:29.307Z,55.09
2017-02-16T16:34:31.536Z,55.16
2017-02-16T16:36:23.791Z,55.19
2017-02-16T16:38:21.321Z,55.22
2017-02-16T16:40:23.801Z,55.25
2017-02-16T16:42:36.529Z,55.25
2017-02-16T16:44:29.151Z,55.28
2017-02-16T16:46:16.625Z,55.33
2017-02-16T16:48:23.964Z,55.34
2017-02-16T16:50:26.205Z,55.33
2017-02-16T16:52:13.707Z,55.3
2017-02-16T16:54:15.983Z,55.28
2017-02-16T16:56:08.378Z,55.23
2017-02-16T16:58:00.906Z,55.17
2017-02-16T16:59:53.279Z,55.07
2017-02-16T17:01:50.682Z,54.95
2017-02-16T17:03:42.982Z,54.9
2017-02-16T17:05:45.438Z,54.89
2017-02-16T17:07:47.772Z,54.87
2017-02-16T17:09:55.109Z,54.83
2017-02-16T17:11:52.571Z,54.82
2017-02-16T17:14:04.832Z,54.77
2017-02-16T17:16:12.067Z,54.72
2017-02-16T17:18:14.430Z,54.64
2017-02-16T17:20:11.914Z,54.55
2017-02-16T17:21:59.375Z,54.46
2017-02-16T17:23:56.620Z,54.36
2017-02-16T17:25:44.109Z,54.32
2017-02-16T17:27:46.471Z,54.26
2017-02-16T17:29:49.325Z,54.17
2017-02-16T17:31:56.771Z,54.1
2017-02-16T17:33:59.091Z,54.02
2017-02-16T17:36:01.622Z,53.9
2017-02-16T17:37:53.986Z,53.8
2017-02-16T17:39:56.219Z,53.69
2017-02-16T17:41:58.632Z,53.59
2017-02-16T17:44:01.094Z,53.55
2017-02-16T17:46:08.336Z,53.53
2017-02-16T17:48:10.560Z,53.49
2017-02-16T17:50:03.046Z,53.46
2017-02-16T17:51:55.544Z,53.4
2017-02-16T17:54:03.336Z,53.37
2017-02-16T17:56:05.828Z,53.37
2017-02-16T17:58:03.437Z,53.31
2017-02-16T17:59:55.804Z,53.24
2017-02-16T18:02:04.271Z,53.18
2017-02-16T18:04:01.795Z,53.16
2017-02-16T18:05:54.198Z,53.09
2017-02-16T18:07:41.538Z,52.97
2017-02-16T18:09:53.794Z,52.87
2017-02-16T18:11:41.292Z,52.85
2017-02-16T18:13:38.642Z,52.84
2017-02-16T18:15:36.069Z,52.8
2017-02-16T18:17:29.578Z,52.74
2017-02-16T18:19:33.582Z,52.67
2017-02-16T18:21:41.149Z,52.62
2017-02-16T18:23:38.523Z,52.59
2017-02-16T18:25:40.807Z,52.58
2017-02-16T18:27:38.092Z,52.56
2017-02-16T18:29:40.475Z,52.53
2017-02-16T18:31:48.545Z,52.51
2017-02-16T18:33:46.111Z,52.49
2017-02-16T18:35:58.631Z,52.47
2017-02-16T18:38:01.075Z,52.43
2017-02-16T18:40:03.626Z,52.4
2017-02-16T18:42:01.065Z,52.35
2017-02-16T18:43:43.632Z,52.33
2017-02-16T18:45:51.219Z,52.21
2017-02-16T18:47:43.752Z,52.15
2017-02-16T18:49:36.360Z,52.13
2017-02-16T18:51:33.704Z,52.1
2017-02-16T18:53:41.308Z,52.07
2017-02-16T18:55:53.869Z,52.07
2017-02-16T18:57:51.241Z,52.11
2017-02-16T18:59:53.544Z,52.04
2017-02-16T19:02:00.932Z,51.92
2017-02-16T19:03:58.612Z,51.9
2017-02-16T19:05:50.885Z,51.89
2017-02-16T19:07:53.459Z,51.87
2017-02-16T19:09:55.961Z,51.85
2017-02-16T19:11:48.519Z,51.81
2017-02-16T19:14:00.937Z,51.75
2017-02-16T19:15:58.286Z,51.73
2017-02-16T19:18:00.557Z,51.74
2017-02-16T19:20:07.822Z,51.67
2017-02-16T19:22:00.181Z,51.58
2017-02-16T19:24:02.595Z,51.54
2017-02-16T19:26:09.823Z,51.48
2017-02-16T19:28:12.251Z,51.42
2017-02-16T19:29:59.741Z,51.41
2017-02-16T19:31:57.172Z,51.41
2017-02-16T19:33:39.540Z,51.41
2017-02-16T19:35:36.968Z,51.41
2017-02-16T19:37:39.347Z,51.36
2017-02-16T19:39:46.791Z,51.37
2017-02-16T19:41:54.183Z,51.36
2017-02-16T19:43:56.600Z,51.3
2017-02-16T19:45:58.919Z,51.24
2017-02-16T19:47:56.579Z,51.21
2017-02-16T19:49:58.942Z,51.18
2017-02-16T19:52:06.564Z,51.18
2017-02-16T19:54:04.112Z,51.2
2017-02-16T19:55:56.610Z,51.19
2017-02-16T19:57:54.104Z,51.22
2017-02-16T19:59:46.506Z,51.24
2017-02-16T20:01:48.879Z,51.23
2017-02-16T20:03:51.296Z,51.21
2017-02-16T20:05:43.774Z,51.16
2017-02-16T20:07:41.243Z,51.19
2017-02-16T20:09:43.713Z,51.17
2017-02-16T20:11:46.108Z,51.08
2017-02-16T20:13:53.490Z,51.01
2017-02-16T20:16:00.824Z,50.99
2017-02-16T20:18:08.437Z,50.96
2017-02-16T20:20:05.742Z,50.9
2017-02-16T20:22:08.196Z,50.87
2017-02-16T20:24:15.534Z,50.89
2017-02-16T20:26:13.357Z,50.93
2017-02-16T20:28:16.021Z,50.95
2017-02-16T20:29:58.478Z,50.95
2017-02-16T20:31:46.007Z,50.96
2017-02-16T20:33:48.455Z,50.99
2017-02-16T20:35:45.950Z,51.04
2017-02-16T20:37:53.645Z,51.01
2017-02-16T20:39:51.248Z,51.05
2017-02-16T20:41:48.902Z,51.02
2017-02-16T20:43:56.522Z,50.97
2017-02-16T20:45:59.086Z,50.91
2017-02-16T20:47:56.633Z,50.91
2017-02-16T20:49:54.079Z,50.85
2017-02-16T20:52:01.610Z,50.9
2017-02-16T20:54:03.884Z,50.92
2017-02-16T20:56:06.446Z,50.91
2017-02-16T20:57:56.614Z,50.87
2017-02-16T20:59:53.976Z,50.82
2017-02-16T21:01:56.672Z,50.83
2017-02-16T21:04:04.184Z,50.88
2017-02-16T21:06:11.851Z,50.91
2017-02-16T21:08:19.595Z,50.94
2017-02-16T21:10:22.219Z,50.94
2017-02-16T21:12:25.120Z,50.95
2017-02-16T21:14:32.680Z,50.97
2017-02-16T21:16:30.179Z,50.99
2017-02-16T21:18:17.789Z,51.02
2017-02-16T21:20:20.129Z,51.01
2017-02-16T21:22:17.559Z,50.96
2017-02-16T21:24:20.139Z,50.97
2017-02-16T21:26:07.582Z,50.98
2017-02-16T21:28:15.219Z,50.95
2017-02-16T21:30:12.798Z,50.92
2017-02-16T21:32:25.532Z,50.83
2017-02-16T21:34:17.878Z,50.74
2017-02-16T21:36:25.501Z,50.63
2017-02-16T21:38:33.075Z,50.54
2017-02-16T21:40:30.779Z,50.47
2017-02-16T21:42:43.662Z,50.41
2017-02-16T21:44:46.003Z,50.38
2017-02-16T21:46:43.408Z,50.38
2017-02-16T21:48:45.802Z,50.36
2017-02-16T21:50:58.211Z,50.37
2017-02-16T21:52:45.716Z,50.39
2017-02-16T21:54:53.217Z,50.4
2017-02-16T21:56:48.518Z,50.4
2017-02-16T21:58:45.972Z,50.36
2017-02-16T22:00:53.463Z,50.31
2017-02-16T22:03:00.972Z,50.27
2017-02-16T22:05:03.432Z,50.24
2017-02-16T22:07:00.779Z,50.24
2017-02-16T22:08:48.346Z,50.27
2017-02-16T22:10:45.770Z,50.28
2017-02-16T22:12:38.240Z,50.29
2017-02-16T22:14:45.790Z,50.27
2017-02-16T22:16:53.233Z,50.22
2017-02-16T22:18:50.796Z,50.14
2017-02-16T22:20:43.257Z,50.06
2017-02-16T22:22:50.565Z,49.99
2017-02-16T22:25:03.092Z,49.94
2017-02-16T22:27:10.769Z,49.93
2017-02-16T22:29:28.854Z,49.99
2017-02-16T22:31:34.596Z,50.12
2017-02-16T22:33:47.062Z,50.26
2017-02-16T22:35:42.416Z,50.31
2017-02-16T22:37:59.530Z,50.41
2017-02-16T22:40:11.718Z,50.45
2017-02-16T22:42:12.948Z,50.49
2017-02-16T22:44:25.133Z,50.56
2017-02-16T22:46:37.330Z,50.61
2017-02-16T22:48:49.835Z,50.66
2017-02-16T22:50:59.741Z,50.71
2017-02-16T22:53:12.537Z,50.7
2017-02-16T22:55:05.085Z,50.72
2017-02-16T22:57:07.393Z,50.75
2017-02-16T22:58:59.787Z,50.81
2017-02-16T23:00:57.209Z,50.82
2017-02-16T23:02:54.525Z,50.79
2017-02-16T23:05:06.911Z,50.78
2017-02-16T23:07:04.211Z,50.78
2017-02-16T23:08:51.642Z,50.75
2017-02-16T23:10:48.906Z,50.78
2017-02-16T23:12:46.193Z,50.77
2017-02-16T23:14:53.613Z,50.72
2017-02-16T23:16:58.618Z,50.66
2017-02-16T23:19:11.635Z,50.58
2017-02-16T23:21:09.334Z,50.53
2017-02-16T23:23:12.289Z,50.47
2017-02-16T23:25:14.988Z,50.41
2017-02-16T23:27:17.802Z,50.35
2017-02-16T23:29:25.473Z,50.29
2017-02-16T23:31:22.915Z,50.26
2017-02-16T23:33:15.415Z,50.22
2017-02-16T23:35:22.769Z,50.19
2017-02-16T23:37:15.111Z,50.19
2017-02-16T23:39:17.515Z,50.21
2017-02-16T23:41:14.901Z,50.21
2017-02-16T23:43:17.245Z,50.17
2017-02-16T23:45:09.691Z,50.12
2017-02-16T23:47:12.003Z,50.08
2017-02-16T23:49:14.327Z,50.08
2017-02-16T23:51:16.856Z,50.08
2017-02-16T23:53:09.278Z,50.1
2017-02-16T23:55:06.817Z,50.09
2017-02-16T23:57:04.339Z,50.08
2017-02-16T23:59:06.670Z,50.09
